Terminal Aerodrome Forecast
Issued by NWS Birmingham, AL

Home | Current Version | Previous Version | Text Only | Print | Product List | Glossary On
Versions: 1 2 3 4 5 6 7 8 9 10 11 12 13 14 15
000
FTUS44 KBMX 261736
TAFBHM
TAF
KBHM 261736Z 2618/2718 07006KT P6SM SCT050 SCT250
     FM270200 VRB03KT P6SM FEW100
     FM271400 11005KT P6SM SCT120=

USA.gov is the U.S. government's official web portal to all federal, state and local government web resources and services.